createdAt,value
2023-02-20T00:01:30.805Z,61.58
2023-02-20T00:03:57.517Z,60.41
2023-02-20T00:06:24.145Z,59.68
2023-02-20T00:08:50.813Z,58.91
2023-02-20T00:11:17.941Z,60.25
2023-02-20T00:13:49.547Z,59.12
2023-02-20T00:16:16.527Z,60.81
2023-02-20T00:18:44.877Z,61.66
2023-02-20T00:21:11.764Z,59.67
2023-02-20T00:23:38.449Z,60.19
2023-02-20T00:26:10.069Z,60.21
2023-02-20T00:28:39.251Z,58.26
2023-02-20T00:31:15.921Z,56.80
2023-02-20T00:33:42.802Z,55.46
2023-02-20T00:36:18.745Z,55.59
2023-02-20T00:38:46.395Z,56.50
2023-02-20T00:41:14.133Z,57.30
2023-02-20T00:43:41.675Z,56.93
2023-02-20T00:46:13.148Z,55.75
2023-02-20T00:48:40.146Z,56.71
2023-02-20T00:51:06.743Z,57.90
2023-02-20T00:53:33.348Z,56.74
2023-02-20T00:55:59.941Z,57.17
2023-02-20T00:58:26.566Z,57.28
2023-02-20T01:00:53.266Z,57.42
2023-02-20T01:03:19.964Z,57.91
2023-02-20T01:05:46.563Z,60.96
2023-02-20T01:08:16.255Z,60.04
2023-02-20T01:10:42.877Z,58.44
2023-02-20T01:13:09.496Z,58.15
2023-02-20T01:15:36.194Z,58.10
2023-02-20T01:18:02.944Z,57.80
2023-02-20T01:20:29.544Z,58.75
2023-02-20T01:22:56.161Z,57.53
2023-02-20T01:25:22.836Z,57.20
2023-02-20T01:27:49.744Z,56.38
2023-02-20T01:30:17.074Z,57.21
2023-02-20T01:32:43.997Z,56.37
2023-02-20T01:35:11.061Z,55.55
2023-02-20T01:37:37.669Z,56.36
2023-02-20T01:40:05.865Z,58.01
2023-02-20T01:42:34.938Z,56.71
2023-02-20T01:45:37.984Z,57.95
2023-02-20T01:48:04.906Z,58.26
2023-02-20T01:50:41.435Z,58.56
2023-02-20T01:53:15.950Z,58.03
2023-02-20T01:55:57.641Z,57.74
2023-02-20T01:58:33.876Z,57.75
2023-02-20T02:01:00.858Z,56.91
2023-02-20T02:03:36.987Z,59.63
2023-02-20T02:06:07.525Z,58.34
2023-02-20T02:08:37.790Z,57.98
2023-02-20T02:11:09.079Z,57.05
2023-02-20T02:13:38.748Z,58.86
2023-02-20T02:16:05.400Z,57.12
2023-02-20T02:18:58.246Z,57.20
2023-02-20T02:21:57.829Z,58.01
2023-02-20T02:25:09.609Z,57.62
2023-02-20T02:28:00.104Z,58.65
2023-02-20T02:30:50.037Z,57.83
2023-02-20T02:33:54.925Z,59.11
2023-02-20T02:36:24.429Z,58.39
2023-02-20T02:39:09.372Z,58.17
2023-02-20T02:41:50.780Z,59.18
2023-02-20T02:44:37.140Z,58.28
2023-02-20T02:47:13.374Z,58.66
2023-02-20T02:49:58.616Z,58.76
2023-02-20T02:52:27.799Z,59.53
2023-02-20T02:54:56.179Z,58.98
2023-02-20T02:57:27.321Z,58.98
2023-02-20T03:00:26.187Z,59.08
2023-02-20T03:03:23.849Z,58.33
2023-02-20T03:06:01.868Z,58.12
2023-02-20T03:08:37.944Z,58.84
2023-02-20T03:11:12.558Z,59.09
2023-02-20T03:13:51.155Z,58.63
2023-02-20T03:16:25.707Z,58.77
2023-02-20T03:19:00.133Z,59.34
2023-02-20T03:21:32.075Z,59.49
2023-02-20T03:24:03.510Z,60.84
2023-02-20T03:26:36.402Z,62.33
2023-02-20T03:29:11.528Z,60.99
2023-02-20T03:31:55.025Z,60.99
2023-02-20T03:34:27.547Z,63.85
2023-02-20T03:37:00.608Z,64.56
2023-02-20T03:39:34.645Z,63.88
2023-02-20T03:42:06.604Z,62.56
2023-02-20T03:44:35.544Z,61.87
2023-02-20T03:47:07.281Z,61.24
2023-02-20T03:49:41.182Z,61.86
2023-02-20T03:52:08.450Z,60.59
2023-02-20T03:54:37.114Z,60.99
2023-02-20T03:57:10.633Z,59.92
2023-02-20T03:59:50.615Z,60.36
2023-02-20T04:02:36.561Z,59.77
2023-02-20T04:05:12.918Z,59.80
2023-02-20T04:07:56.513Z,59.38
2023-02-20T04:10:29.019Z,58.23
2023-02-20T04:12:58.552Z,58.62
2023-02-20T04:15:26.089Z,59.47
2023-02-20T04:18:04.750Z,59.43
2023-02-20T04:20:31.645Z,59.86
2023-02-20T04:23:24.068Z,61.51
2023-02-20T04:26:06.625Z,60.88
2023-02-20T04:28:33.583Z,63.68
2023-02-20T04:31:00.280Z,61.35
2023-02-20T04:33:27.038Z,62.54
2023-02-20T04:35:53.749Z,61.24
2023-02-20T04:38:20.978Z,60.55
2023-02-20T04:40:47.687Z,60.69
2023-02-20T04:43:17.398Z,59.88
2023-02-20T04:45:44.055Z,60.45
2023-02-20T04:48:10.800Z,59.86
2023-02-20T04:50:37.531Z,60.70
2023-02-20T04:53:04.235Z,59.64
2023-02-20T04:55:30.990Z,60.06
2023-02-20T04:57:57.728Z,60.05
2023-02-20T05:00:26.300Z,60.31
2023-02-20T05:02:53.777Z,60.24
2023-02-20T05:05:28.798Z,59.23
2023-02-20T05:08:02.610Z,58.66
2023-02-20T05:10:30.871Z,59.47
2023-02-20T05:12:59.829Z,58.59
2023-02-20T05:15:28.209Z,59.75
2023-02-20T05:17:55.003Z,60.85
2023-02-20T05:20:21.916Z,62.72
2023-02-20T05:22:48.619Z,63.48
2023-02-20T05:25:17.681Z,63.71
2023-02-20T05:27:44.412Z,65.07
2023-02-20T05:30:11.421Z,63.27
2023-02-20T05:32:38.387Z,61.31
2023-02-20T05:35:05.268Z,63.10
2023-02-20T05:37:33.599Z,62.06
2023-02-20T05:40:00.901Z,61.77
2023-02-20T05:42:27.901Z,62.33
2023-02-20T05:44:54.676Z,62.75
2023-02-20T05:47:21.840Z,61.73
2023-02-20T05:49:48.475Z,61.19
2023-02-20T05:52:15.471Z,60.65
2023-02-20T05:54:42.231Z,61.66
2023-02-20T05:57:11.957Z,62.18
2023-02-20T05:59:38.866Z,62.64
2023-02-20T06:02:05.757Z,63.81
2023-02-20T06:04:32.702Z,65.02
2023-02-20T06:06:59.674Z,65.55
2023-02-20T06:09:26.344Z,68.44
2023-02-20T06:11:55.306Z,64.85
2023-02-20T06:14:26.322Z,65.98
2023-02-20T06:16:53.246Z,66.71
2023-02-20T06:19:22.641Z,64.88
2023-02-20T06:21:53.556Z,65.83
2023-02-20T06:24:21.241Z,65.54
2023-02-20T06:26:48.089Z,65.82
2023-02-20T06:29:16.570Z,70.46
2023-02-20T06:31:44.770Z,68.97
2023-02-20T06:34:11.968Z,69.54
2023-02-20T06:36:40.671Z,71.30
2023-02-20T06:39:09.790Z,72.26
2023-02-20T06:41:36.964Z,72.93
2023-02-20T06:44:03.663Z,73.39
2023-02-20T06:46:30.383Z,73.13
2023-02-20T06:48:58.922Z,72.77
2023-02-20T06:51:31.691Z,72.63
2023-02-20T06:53:59.867Z,71.81
2023-02-20T06:56:30.066Z,71.92
2023-02-20T06:58:58.039Z,70.83
2023-02-20T07:01:28.313Z,70.27
2023-02-20T07:03:56.277Z,70.71
2023-02-20T07:06:24.815Z,70.31
2023-02-20T07:08:51.990Z,70.16
2023-02-20T07:11:21.869Z,69.19
2023-02-20T07:13:49.108Z,68.64
2023-02-20T07:16:16.633Z,66.44
2023-02-20T07:18:44.706Z,64.63
2023-02-20T07:21:11.420Z,62.11
2023-02-20T07:23:38.122Z,60.47
2023-02-20T07:26:05.033Z,60.63
2023-02-20T07:28:35.041Z,60.87
2023-02-20T07:31:02.406Z,61.84
2023-02-20T07:33:29.416Z,60.88
2023-02-20T07:35:56.100Z,60.67
2023-02-20T07:38:22.798Z,59.28
2023-02-20T07:40:50.529Z,58.30
2023-02-20T07:43:17.285Z,57.61
2023-02-20T07:45:44.073Z,57.33
2023-02-20T07:48:10.834Z,57.09
2023-02-20T07:50:37.539Z,57.98
2023-02-20T07:53:04.614Z,59.35
2023-02-20T07:55:31.345Z,59.79
2023-02-20T07:57:58.059Z,60.66
2023-02-20T08:00:27.052Z,61.56
2023-02-20T08:02:54.016Z,60.96
2023-02-20T08:05:20.853Z,59.21
2023-02-20T08:07:49.582Z,58.45
2023-02-20T08:10:18.781Z,57.24
2023-02-20T08:12:46.976Z,55.54
2023-02-20T08:15:13.750Z,54.00
2023-02-20T08:17:46.925Z,52.60
2023-02-20T08:20:18.938Z,51.80
2023-02-20T08:22:47.125Z,52.59
2023-02-20T08:25:15.560Z,51.89
2023-02-20T08:27:45.562Z,50.17
2023-02-20T08:30:18.924Z,51.70
2023-02-20T08:32:47.328Z,52.79
2023-02-20T08:35:14.112Z,52.33
2023-02-20T08:37:40.821Z,52.48
2023-02-20T08:40:08.375Z,54.56
2023-02-20T08:42:35.346Z,53.48
2023-02-20T08:45:04.007Z,53.32
2023-02-20T08:47:30.684Z,56.35
2023-02-20T08:49:57.340Z,61.17
2023-02-20T08:52:25.713Z,61.17
2023-02-20T08:54:52.422Z,62.39
2023-02-20T08:57:19.635Z,62.03
2023-02-20T08:59:46.514Z,60.50
2023-02-20T09:02:22.391Z,58.95
2023-02-20T09:04:49.136Z,57.71
2023-02-20T09:07:15.850Z,58.26
2023-02-20T09:09:42.927Z,58.67
2023-02-20T09:12:10.218Z,59.20
2023-02-20T09:14:37.729Z,58.03
2023-02-20T09:17:05.711Z,57.53
2023-02-20T09:19:34.253Z,58.32
2023-02-20T09:22:01.992Z,58.64
2023-02-20T09:24:28.725Z,58.49
2023-02-20T09:26:56.950Z,58.20
2023-02-20T09:29:24.596Z,59.10
2023-02-20T09:31:51.331Z,58.62
2023-02-20T09:34:18.073Z,59.50
2023-02-20T09:36:45.053Z,59.03
2023-02-20T09:39:11.710Z,58.66
2023-02-20T09:42:05.525Z,58.86
2023-02-20T09:44:32.312Z,57.98
2023-02-20T09:47:09.184Z,58.35
2023-02-20T09:49:36.297Z,57.94
2023-02-20T09:52:14.789Z,56.37
2023-02-20T09:55:03.691Z,56.18
2023-02-20T09:57:31.978Z,56.91
2023-02-20T10:00:08.653Z,57.44
2023-02-20T10:02:46.473Z,57.10
2023-02-20T10:05:23.888Z,57.39
2023-02-20T10:07:53.803Z,57.82
2023-02-20T10:10:22.608Z,57.84
2023-02-20T10:12:49.353Z,56.97
2023-02-20T10:16:03.826Z,56.18
2023-02-20T10:18:30.449Z,58.53
2023-02-20T10:20:57.016Z,57.35
2023-02-20T10:23:49.342Z,56.35
2023-02-20T10:26:33.434Z,55.01
2023-02-20T10:29:18.047Z,55.59
2023-02-20T10:31:58.379Z,55.55
2023-02-20T10:34:41.421Z,56.81
2023-02-20T10:37:18.568Z,56.08
2023-02-20T10:40:20.083Z,55.85
2023-02-20T10:42:57.663Z,56.68
2023-02-20T10:45:37.052Z,58.42
2023-02-20T10:48:09.472Z,57.25
2023-02-20T10:50:49.050Z,55.95
2023-02-20T10:53:34.460Z,55.33
2023-02-20T10:56:11.523Z,56.39
2023-02-20T10:59:00.040Z,57.26
2023-02-20T11:01:28.721Z,58.16
2023-02-20T11:04:11.458Z,56.06
2023-02-20T11:07:20.120Z,55.95
2023-02-20T11:09:46.841Z,54.97
2023-02-20T11:12:36.555Z,55.01
2023-02-20T11:15:11.600Z,54.77
2023-02-20T11:17:40.476Z,54.78
2023-02-20T11:20:33.200Z,55.42
2023-02-20T11:23:01.748Z,54.45
2023-02-20T11:25:34.113Z,55.67
2023-02-20T11:28:17.497Z,54.04
2023-02-20T11:30:50.157Z,53.72
2023-02-20T11:33:24.526Z,53.20
2023-02-20T11:35:59.538Z,53.95
2023-02-20T11:38:32.289Z,54.14
2023-02-20T11:40:58.916Z,53.05
2023-02-20T11:43:35.042Z,53.99
2023-02-20T11:46:21.645Z,53.95
2023-02-20T11:48:54.135Z,52.81
2023-02-20T11:51:41.761Z,52.76
2023-02-20T11:54:14.375Z,52.65
2023-02-20T11:57:18.550Z,52.74
2023-02-20T11:59:50.910Z,52.64
2023-02-20T12:02:17.959Z,52.83
2023-02-20T12:05:06.517Z,52.87
2023-02-20T12:07:44.275Z,52.33
2023-02-20T12:10:33.648Z,51.63
2023-02-20T12:13:00.653Z,51.26
2023-02-20T12:15:29.439Z,51.35
2023-02-20T12:18:29.341Z,50.63
2023-02-20T12:21:25.747Z,50.90
2023-02-20T12:24:17.529Z,51.74
2023-02-20T12:26:56.816Z,52.10
2023-02-20T12:29:51.482Z,51.55
2023-02-20T12:32:27.887Z,51.83
2023-02-20T12:35:25.087Z,52.92
2023-02-20T12:38:00.713Z,52.65
2023-02-20T12:41:02.233Z,53.20
2023-02-20T12:44:12.961Z,52.13
2023-02-20T12:47:04.645Z,52.55
2023-02-20T12:49:33.920Z,51.36
2023-02-20T12:52:36.898Z,51.03
2023-02-20T12:55:06.224Z,51.28
2023-02-20T12:58:10.395Z,52.29
2023-02-20T13:00:46.640Z,52.31
2023-02-20T13:03:31.590Z,50.44
2023-02-20T13:05:58.671Z,49.80
2023-02-20T13:08:33.026Z,50.44
2023-02-20T13:11:04.382Z,50.43
2023-02-20T13:13:48.114Z,49.43
2023-02-20T13:16:26.468Z,48.66
2023-02-20T13:19:23.876Z,49.33
2023-02-20T13:21:50.629Z,48.81
2023-02-20T13:24:20.057Z,49.53
2023-02-20T13:26:52.844Z,49.29
2023-02-20T13:29:28.342Z,50.26
2023-02-20T13:31:58.717Z,51.15
2023-02-20T13:34:33.232Z,49.83
2023-02-20T13:37:00.611Z,50.18
2023-02-20T13:39:27.229Z,50.08
2023-02-20T13:41:53.895Z,49.20
2023-02-20T13:44:33.949Z,48.95
2023-02-20T13:47:25.781Z,47.79
2023-02-20T13:49:56.696Z,49.80
2023-02-20T13:52:43.077Z,49.15
2023-02-20T13:55:09.662Z,49.44
2023-02-20T13:58:02.076Z,48.28
2023-02-20T14:00:49.178Z,47.45
2023-02-20T14:03:25.714Z,47.62
2023-02-20T14:06:09.028Z,48.43
2023-02-20T14:08:38.261Z,48.94
2023-02-20T14:11:26.858Z,48.50
2023-02-20T14:13:58.560Z,48.30
2023-02-20T14:16:42.967Z,48.91
2023-02-20T14:19:24.208Z,48.34
2023-02-20T14:21:50.908Z,48.03
2023-02-20T14:24:27.530Z,47.86
2023-02-20T14:26:55.333Z,47.92
2023-02-20T14:29:28.284Z,48.09
2023-02-20T14:31:57.641Z,47.77
2023-02-20T14:34:52.833Z,48.90
2023-02-20T14:37:19.393Z,48.12
2023-02-20T14:40:04.676Z,48.87
2023-02-20T14:42:31.657Z,49.11
2023-02-20T14:45:05.650Z,49.05
2023-02-20T14:47:32.884Z,49.84
2023-02-20T14:50:16.638Z,48.79
2023-02-20T14:52:43.465Z,49.24
2023-02-20T14:55:17.583Z,49.15
2023-02-20T14:57:49.474Z,48.80
2023-02-20T15:00:19.028Z,47.74
2023-02-20T15:02:49.716Z,47.30
2023-02-20T15:05:26.317Z,48.36
2023-02-20T15:08:15.323Z,47.98
2023-02-20T15:10:46.542Z,47.56
2023-02-20T15:13:19.803Z,47.31
2023-02-20T15:16:04.246Z,47.34
2023-02-20T15:18:37.493Z,48.15
2023-02-20T15:21:05.486Z,48.10
2023-02-20T15:23:34.313Z,49.00
2023-02-20T15:26:28.672Z,49.44
2023-02-20T15:29:22.148Z,48.94
2023-02-20T15:32:04.712Z,48.66
2023-02-20T15:34:34.941Z,47.80
2023-02-20T15:37:17.019Z,48.65
2023-02-20T15:39:43.849Z,48.17
2023-02-20T15:42:12.065Z,47.22
2023-02-20T15:44:39.091Z,47.20
2023-02-20T15:47:05.733Z,47.59
2023-02-20T15:49:32.377Z,47.51
2023-02-20T15:52:08.777Z,47.47
2023-02-20T15:54:36.335Z,46.63
2023-02-20T15:57:03.003Z,47.01
2023-02-20T15:59:29.614Z,46.81
2023-02-20T16:01:56.297Z,46.19
2023-02-20T16:04:23.047Z,46.12
2023-02-20T16:06:49.684Z,46.78
2023-02-20T16:09:16.321Z,47.03
2023-02-20T16:11:47.148Z,47.77
2023-02-20T16:14:15.932Z,46.87
2023-02-20T16:16:45.689Z,46.71
2023-02-20T16:19:16.086Z,47.10
2023-02-20T16:21:57.797Z,47.61
2023-02-20T16:24:26.233Z,46.93
2023-02-20T16:26:53.589Z,47.15
2023-02-20T16:29:27.899Z,47.27
2023-02-20T16:32:00.333Z,47.03
2023-02-20T16:34:31.700Z,47.50
2023-02-20T16:36:59.966Z,46.99
2023-02-20T16:39:27.550Z,47.06
2023-02-20T16:41:59.295Z,47.14
2023-02-20T16:44:44.333Z,46.80
2023-02-20T16:47:17.686Z,47.01
2023-02-20T16:49:44.441Z,47.51
2023-02-20T16:52:17.076Z,47.46
2023-02-20T16:54:48.194Z,47.94
2023-02-20T16:57:16.038Z,48.43
2023-02-20T16:59:42.808Z,48.55
2023-02-20T17:02:20.637Z,48.67
2023-02-20T17:04:48.267Z,49.53
2023-02-20T17:07:15.913Z,49.46
2023-02-20T17:09:45.877Z,50.06
2023-02-20T17:12:16.294Z,50.06
2023-02-20T17:14:43.173Z,50.39
2023-02-20T17:17:10.107Z,50.92
2023-02-20T17:19:40.476Z,50.13
2023-02-20T17:22:07.997Z,50.83
2023-02-20T17:24:35.260Z,50.64
2023-02-20T17:27:02.900Z,51.21
2023-02-20T17:29:29.689Z,52.66
2023-02-20T17:31:56.481Z,54.38
2023-02-20T17:34:23.235Z,53.42
2023-02-20T17:36:49.938Z,54.92
2023-02-20T17:39:19.665Z,53.94
2023-02-20T17:41:48.506Z,54.11
2023-02-20T17:44:24.112Z,53.64
2023-02-20T17:46:52.126Z,54.38
2023-02-20T17:49:20.449Z,54.41
2023-02-20T17:51:53.309Z,54.71
2023-02-20T17:54:19.973Z,55.82
2023-02-20T17:56:49.732Z,56.33
2023-02-20T17:59:17.544Z,56.11
2023-02-20T18:01:45.462Z,57.42
2023-02-20T18:04:12.379Z,57.18
2023-02-20T18:06:39.990Z,58.03
2023-02-20T18:09:08.432Z,56.20
2023-02-20T18:11:35.396Z,55.44
2023-02-20T18:14:02.735Z,55.22
2023-02-20T18:16:29.605Z,54.98
2023-02-20T18:18:56.736Z,55.72
2023-02-20T18:21:26.546Z,55.15
2023-02-20T18:23:54.132Z,55.36
2023-02-20T18:26:21.621Z,55.90
2023-02-20T18:28:48.246Z,56.66
2023-02-20T18:31:15.977Z,56.16
2023-02-20T18:33:43.041Z,58.05
2023-02-20T18:36:10.259Z,57.24
2023-02-20T18:38:37.353Z,57.32
2023-02-20T18:41:04.812Z,57.76
2023-02-20T18:43:31.449Z,57.56
2023-02-20T18:45:58.127Z,58.20
2023-02-20T18:48:24.827Z,59.92
2023-02-20T18:50:51.610Z,59.16
2023-02-20T18:53:18.322Z,56.88
2023-02-20T18:55:45.029Z,57.27
2023-02-20T18:58:11.750Z,58.78
2023-02-20T19:00:38.419Z,58.87
2023-02-20T19:03:05.067Z,58.29
2023-02-20T19:05:31.707Z,59.66
2023-02-20T19:07:58.361Z,59.55
2023-02-20T19:10:27.087Z,58.24
2023-02-20T19:12:54.400Z,57.40
2023-02-20T19:15:22.012Z,57.33
2023-02-20T19:17:49.552Z,56.36
2023-02-20T19:20:22.404Z,58.34
2023-02-20T19:22:50.573Z,58.64
2023-02-20T19:25:19.437Z,58.42
2023-02-20T19:27:46.598Z,58.80
2023-02-20T19:30:14.497Z,58.72
2023-02-20T19:32:41.620Z,57.87
2023-02-20T19:35:08.625Z,58.03
2023-02-20T19:37:36.066Z,57.59
2023-02-20T19:40:03.411Z,57.20
2023-02-20T19:42:30.107Z,58.15
2023-02-20T19:44:56.815Z,57.36
2023-02-20T19:47:23.428Z,56.63
2023-02-20T19:49:50.116Z,55.69
2023-02-20T19:52:17.061Z,56.42
2023-02-20T19:54:45.817Z,57.06
2023-02-20T19:57:13.509Z,57.88
2023-02-20T19:59:42.484Z,57.84
2023-02-20T20:02:11.442Z,56.89
2023-02-20T20:04:38.435Z,56.44
2023-02-20T20:07:05.410Z,57.32
2023-02-20T20:09:37.351Z,59.45
2023-02-20T20:12:08.080Z,58.24
2023-02-20T20:14:35.955Z,57.23
2023-02-20T20:17:02.681Z,58.85
2023-02-20T20:19:29.390Z,59.81
2023-02-20T20:21:56.028Z,56.99
2023-02-20T20:24:22.644Z,55.53
2023-02-20T20:26:49.369Z,56.41
2023-02-20T20:29:15.992Z,55.92
2023-02-20T20:31:42.687Z,56.18
2023-02-20T20:34:09.451Z,57.50
2023-02-20T20:36:36.349Z,57.56
2023-02-20T20:39:04.035Z,60.86
2023-02-20T20:41:44.098Z,59.53
2023-02-20T20:44:12.443Z,60.98
2023-02-20T20:46:40.122Z,62.61
2023-02-20T20:49:06.780Z,62.77
2023-02-20T20:51:33.445Z,60.93
2023-02-20T20:54:00.076Z,58.64
2023-02-20T20:56:26.688Z,58.97
2023-02-20T20:58:53.370Z,60.36
2023-02-20T21:01:20.107Z,59.04
2023-02-20T21:03:46.697Z,57.97
2023-02-20T21:06:13.302Z,58.93
2023-02-20T21:08:39.923Z,58.39
2023-02-20T21:11:07.000Z,58.94
2023-02-20T21:13:34.103Z,59.09
2023-02-20T21:16:00.835Z,58.33
2023-02-20T21:18:27.520Z,58.62
2023-02-20T21:20:54.177Z,58.97
2023-02-20T21:23:20.795Z,58.13
2023-02-20T21:25:47.528Z,57.07
2023-02-20T21:28:14.285Z,57.61
2023-02-20T21:30:40.998Z,58.98
2023-02-20T21:33:07.631Z,59.79
2023-02-20T21:35:35.422Z,61.04
2023-02-20T21:38:02.013Z,59.89
2023-02-20T21:40:28.608Z,60.83
2023-02-20T21:42:55.198Z,61.88
2023-02-20T21:45:21.909Z,61.87
2023-02-20T21:47:48.540Z,61.71
2023-02-20T21:50:16.787Z,60.54
2023-02-20T21:52:46.044Z,60.83
2023-02-20T21:55:15.089Z,61.58
2023-02-20T21:57:41.760Z,62.31
2023-02-20T22:00:10.150Z,62.34
2023-02-20T22:02:37.234Z,60.80
2023-02-20T22:05:04.705Z,61.75
2023-02-20T22:07:31.623Z,62.07
2023-02-20T22:09:58.555Z,62.41
2023-02-20T22:12:27.546Z,64.44
2023-02-20T22:14:54.160Z,61.61
2023-02-20T22:17:21.151Z,62.39
2023-02-20T22:19:47.863Z,61.41
2023-02-20T22:22:14.480Z,60.49
2023-02-20T22:24:41.085Z,59.82
2023-02-20T22:27:09.885Z,59.48
2023-02-20T22:29:37.230Z,59.65
2023-02-20T22:32:04.146Z,59.70
2023-02-20T22:34:30.966Z,59.98
2023-02-20T22:36:57.548Z,61.55
2023-02-20T22:39:24.127Z,60.61
2023-02-20T22:41:50.851Z,59.87
2023-02-20T22:44:17.482Z,59.61
2023-02-20T22:46:44.199Z,59.30
2023-02-20T22:49:10.911Z,61.51
2023-02-20T22:51:37.578Z,60.48
2023-02-20T22:54:04.309Z,62.27
2023-02-20T22:56:31.185Z,63.19
2023-02-20T22:58:57.779Z,65.49
2023-02-20T23:01:24.609Z,66.02
2023-02-20T23:03:51.256Z,65.27
2023-02-20T23:06:20.294Z,62.82
2023-02-20T23:08:48.867Z,61.70
2023-02-20T23:11:15.946Z,61.66
2023-02-20T23:13:47.605Z,62.71
2023-02-20T23:16:22.196Z,61.52
2023-02-20T23:18:48.852Z,62.99
2023-02-20T23:21:16.667Z,63.12
2023-02-20T23:23:43.299Z,62.88
2023-02-20T23:26:11.441Z,62.90
2023-02-20T23:28:41.046Z,64.38
2023-02-20T23:31:07.984Z,64.97
2023-02-20T23:33:34.732Z,65.85
2023-02-20T23:36:01.554Z,63.72
2023-02-20T23:38:28.294Z,62.99
2023-02-20T23:40:55.078Z,63.00
2023-02-20T23:43:22.077Z,63.58
2023-02-20T23:45:48.755Z,65.21
2023-02-20T23:48:15.397Z,62.71
2023-02-20T23:50:42.171Z,63.89
2023-02-20T23:53:08.860Z,63.53
2023-02-20T23:55:35.680Z,61.62
2023-02-20T23:58:02.389Z,61.83
